Blue Ridge Highway — 3FEY4 — position and weather

sailwx.info

Track history (hours):
 
Tides and Currents Weather Stations Pressure Air Temp Water Temp Dewpoint Dewpoint Depression Visibility Wind Speed Wind Dir Waves Ship Positions

Blue Ridge Highway

Last reported at 2014-Oct-20 06:22 UTC. Time now 2014-Oct-25 16:10 UTC.
Position N 01°14' E 103°42'.

Length 180 m; draft 8.8 m.

Type: Cargo ship. MMSI: 355558000.

Date/timePositionNaut miles runAvg speedWind from/ knotsBaromVisibWave heightAir tempDewpointWater temp
2014-Oct-20 06:22N 01°14' E 103°42'5 1.2
2014-Oct-20 02:25N 01°17' E 103°45'0 0.0
2014-Oct-20 01:07N 01°17' E 103°45'0 0.0
2014-Oct-20 00:31N 01°17' E 103°45'0 0.0
2014-Oct-19 23:19N 01°17' E 103°45'0 0.0
2014-Oct-19 22:31N 01°17' E 103°45'0 0.0
2014-Oct-19 21:31N 01°17' E 103°45'0 0.0
2014-Oct-19 20:31N 01°17' E 103°45'0 0.0
2014-Oct-19 19:28N 01°17' E 103°45'0 0.0
2014-Oct-19 18:31N 01°17' E 103°45'0 0.0
2014-Oct-19 17:25N 01°17' E 103°45'0 0.0
2014-Oct-19 16:25N 01°17' E 103°45'0 0.0
2014-Oct-19 15:31N 01°17' E 103°45'1 1.4
2014-Oct-19 14:32N 01°16' E 103°46'7 7.0
2014-Oct-19 13:33N 01°13' E 103°52'6 6.2
2014-Oct-19 12:32N 01°15' E 103°58'7 7.3
2014-Oct-19 11:33N 01°16' E 104°05'  
2014-Oct-10 10:12N 35°00' E 139°40'914.3
2014-Oct-10 09:34N 35°09' E 139°44'1111.1
2014-Oct-10 08:33N 35°20' E 139°43'7 7.2
2014-Oct-10 07:32N 35°27' E 139°41'0 0.0
2014-Oct-10 06:32N 35°27' E 139°41'  
Track history (hours):
 
Tides and Currents Weather Stations Pressure Air Temp Water Temp Dewpoint Dewpoint Depression Visibility Wind Speed Wind Dir Waves Ship Positions

Blue Ridge Highway

Last reported at 2014-Oct-20 06:22 UTC. Time now 2014-Oct-25 16:10 UTC.
Position N 01°14' E 103°42'.

Length 180 m; draft 8.8 m.

Type: Cargo ship. MMSI: 355558000.

Date/timePositionNaut miles runAvg speedWind from/ knotsBaromVisibWave heightAir tempDewpointWater temp
2014-Oct-20 06:22N 01°14' E 103°42'5 1.2
2014-Oct-20 02:25N 01°17' E 103°45'0 0.0
2014-Oct-20 01:07N 01°17' E 103°45'0 0.0
2014-Oct-20 00:31N 01°17' E 103°45'0 0.0
2014-Oct-19 23:19N 01°17' E 103°45'0 0.0
2014-Oct-19 22:31N 01°17' E 103°45'0 0.0
2014-Oct-19 21:31N 01°17' E 103°45'0 0.0
2014-Oct-19 20:31N 01°17' E 103°45'0 0.0
2014-Oct-19 19:28N 01°17' E 103°45'0 0.0
2014-Oct-19 18:31N 01°17' E 103°45'0 0.0
2014-Oct-19 17:25N 01°17' E 103°45'0 0.0
2014-Oct-19 16:25N 01°17' E 103°45'0 0.0
2014-Oct-19 15:31N 01°17' E 103°45'1 1.4
2014-Oct-19 14:32N 01°16' E 103°46'7 7.0
2014-Oct-19 13:33N 01°13' E 103°52'6 6.2
2014-Oct-19 12:32N 01°15' E 103°58'7 7.3
2014-Oct-19 11:33N 01°16' E 104°05'  
2014-Oct-10 10:12N 35°00' E 139°40'914.3
2014-Oct-10 09:34N 35°09' E 139°44'1111.1
2014-Oct-10 08:33N 35°20' E 139°43'7 7.2
2014-Oct-10 07:32N 35°27' E 139°41'0 0.0
2014-Oct-10 06:32N 35°27' E 139°41'  

Dump ship's entire track history